パゴパゴ の空港の天気 - METARとTAF

パゴパゴ国際空港 ( NSTU / PPG ) - アメリカ領サモア パゴパゴ
飛行場実況気象(Metar)
観測時間02/21 06:50 SST (02/21 17:50 UTC)
風向・風速不定 1m/s
視程10km以上
天気現象
少しの雲 雲底高度 550m
全天の4割程度の雲 雲底高度 1220m
全天の8割程度の雲 雲底高度 3050m
全天の8割程度の雲 雲底高度 6100m
気温26.5℃
湿度90%
気圧1005.4hPa
METARNSTU 211750Z VRB02KT 12SM FEW018 SCT040 BKN100 BKN200 27/25 A2969 RMK SLP054 8/871 T02650247 10274 20262 52003
過去の天気等 Google飛行場航空写真 Wunderground天気予報

過去48時間のMETAR

飛行場予報(TAF)
発表時間: 2/21 06:39 SST (2/21 17:39 UTC)
予報対象時間: 21日7時 SST ~ 22日7時 SST
風向・風速西南西 3m/s
視程10km以上
天気現象周辺でしゅう雨
少しの雲 雲底高度 610m
全天の4割程度の雲 雲底高度 1220m
NSTU 211739Z 2118/2218 24006KT P6SM VCSH FEW020 SCT040